Time;durP1;ratioP1;P1;durP2;ratioP2;P2;SDS_P1;SDS_P2;PMS_P1;PMS_P2;Temp;Humidity;BMP_temperature;BMP_pressure;BME280_temperature;BME280_humidity;BME280_pressure;Samples;Min_cycle;Max_cycle;Signal;HPM_P1;HPM_P2
2022/07/10 12:17:12;;;;;;;6.47;5.13;;;;;;;26.56;42.92;96623.56;3204380;27;20249;-74
2022/07/10 12:19:40;;;;;;;5.03;4.63;;;;;;;26.74;42.50;96620.63;4813736;29;20213;-73
2022/07/10 12:22:07;;;;;;;6.57;5.97;;;;;;;26.72;46.12;96612.00;4800504;29;20697;-74
2022/07/10 12:24:35;;;;;;;6.20;5.70;;;;;;;26.84;46.33;96615.88;4800547;29;20628;-73
2022/07/10 12:27:02;;;;;;;6.50;6.00;;;;;;;26.79;46.74;96608.44;4800214;29;20195;-74
2022/07/10 12:29:29;;;;;;;6.37;5.80;;;;;;;27.00;45.49;96629.00;4801177;29;20214;-73
2022/07/10 12:32:00;;;;;;;7.53;6.30;;;;;;;26.99;45.17;96622.88;4800292;29;20241;-73
2022/07/10 12:34:46;;;;;;;6.13;5.63;;;;;;;27.11;43.36;96615.25;4800049;29;20206;-76
2022/07/10 12:37:16;;;;;;;7.57;5.27;;;;;;;27.12;43.15;96617.72;4792252;29;20222;-73
2022/07/10 12:39:48;;;;;;;7.03;5.70;;;;;;;27.20;43.96;96617.63;4795318;29;20681;-75
2022/07/10 12:42:29;;;;;;;6.23;5.63;;;;;;;27.28;44.10;96622.88;4800707;29;20202;-75
2022/07/10 12:45:12;;;;;;;7.23;6.50;;;;;;;27.27;43.34;96617.72;4798885;29;20210;-75
2022/07/10 12:47:48;;;;;;;6.13;5.47;;;;;;;27.34;42.70;96592.09;4794638;29;20245;-74
2022/07/10 12:50:20;;;;;;;6.07;5.50;;;;;;;27.10;43.42;96587.84;4800274;29;20905;-76
2022/07/10 12:52:47;;;;;;;6.13;5.53;;;;;;;27.14;42.50;96591.78;4799669;29;20250;-74
2022/07/10 12:55:25;;;;;;;5.23;4.83;;;;;;;27.18;42.20;96587.75;4799213;29;20717;-74
2022/07/10 12:58:05;;;;;;;6.27;5.67;;;;;;;27.32;42.19;96575.47;4799133;29;20567;-75
2022/07/10 13:00:34;;;;;;;6.03;5.50;;;;;;;27.45;42.59;96580.97;4800088;29;20212;-75
2022/07/10 13:03:09;;;;;;;5.60;5.10;;;;;;;27.39;42.35;96584.38;4798554;29;20213;-73
2022/07/10 13:05:38;;;;;;;6.07;5.40;;;;;;;27.47;42.09;96570.16;4798929;29;20228;-74
2022/07/10 13:08:21;;;;;;;5.87;5.27;;;;;;;27.38;42.15;96585.41;4800193;29;20283;-72
2022/07/10 13:10:55;;;;;;;5.47;4.97;;;;;;;27.43;41.79;96574.22;4799416;29;20941;-74
2022/07/10 13:13:22;;;;;;;7.47;5.87;;;;;;;27.57;41.62;96571.53;4801154;29;20288;-73
2022/07/10 13:15:50;;;;;;;7.10;6.37;;;;;;;27.53;42.90;96572.91;4798736;29;20269;-75
2022/07/10 13:18:22;;;;;;;8.93;5.27;;;;;;;27.56;42.76;96569.84;4799536;29;20210;-73
2022/07/10 13:20:52;;;;;;;6.30;5.60;;;;;;;27.61;42.65;96567.47;4800182;29;20271;-74
2022/07/10 13:23:27;;;;;;;6.13;5.53;;;;;;;27.42;42.45;96568.06;4799232;29;20875;-74
2022/07/10 13:26:02;;;;;;;6.10;5.33;;;;;;;27.80;42.84;96566.06;4799664;29;20206;-75
2022/07/10 13:28:30;;;;;;;6.47;5.27;;;;;;;27.65;42.55;96567.91;4799629;29;20658;-75
2022/07/10 13:30:56;;;;;;;5.20;4.80;;;;;;;27.77;41.55;96566.41;4798119;29;20250;-74
2022/07/10 13:33:24;;;;;;;6.80;5.83;;;;;;;27.75;41.73;96563.13;4799669;29;20279;-74
2022/07/10 13:35:52;;;;;;;5.90;5.20;;;;;;;27.99;41.54;96565.44;4798722;29;20202;-75
2022/07/10 13:38:20;;;;;;;5.33;4.90;;;;;;;27.90;41.60;96563.91;4799201;29;20634;-75
2022/07/10 13:40:47;;;;;;;5.50;4.90;;;;;;;27.70;41.38;96560.22;4799034;29;20680;-75
2022/07/10 13:43:17;;;;;;;5.87;5.03;;;;;;;27.71;41.43;96567.16;4802231;29;20589;-74
2022/07/10 13:45:44;;;;;;;4.93;4.53;;;;;;;27.51;41.23;96551.00;4802714;29;20668;-74
2022/07/10 13:48:16;;;;;;;6.03;5.43;;;;;;;27.55;41.49;96562.06;4802416;29;20405;-74
2022/07/10 13:50:48;;;;;;;4.53;4.17;;;;;;;27.65;40.35;96565.25;4802475;29;20283;-75
2022/07/10 13:53:16;;;;;;;4.90;4.50;;;;;;;27.67;40.58;96576.53;4802224;29;20233;-73
2022/07/10 13:55:44;;;;;;;5.33;4.47;;;;;;;27.60;41.00;96580.94;4803264;29;20305;-73
2022/07/10 13:58:11;;;;;;;5.37;4.17;;;;;;;27.31;40.84;96573.81;4801342;29;20746;-75
2022/07/10 14:00:39;;;;;;;4.83;4.33;;;;;;;27.00;41.70;96562.53;4803228;29;20654;-74
2022/07/10 14:03:07;;;;;;;4.70;4.30;;;;;;;26.73;41.70;96574.59;4802851;29;20210;-74
2022/07/10 14:05:34;;;;;;;4.47;3.90;;;;;;;26.71;41.17;96547.38;4802666;29;20198;-74
2022/07/10 14:08:02;;;;;;;4.50;4.10;;;;;;;26.92;40.49;96568.78;4802206;29;20305;-74
2022/07/10 14:10:30;;;;;;;4.83;3.80;;;;;;;26.85;40.66;96564.38;4802270;29;20262;-73
2022/07/10 14:12:58;;;;;;;3.97;3.67;;;;;;;26.82;40.78;96541.63;4803077;29;20274;-74
2022/07/10 14:15:25;;;;;;;4.43;4.03;;;;;;;27.17;40.72;96574.63;4800779;29;20249;-75
2022/07/10 14:17:52;;;;;;;3.60;3.30;;;;;;;27.12;39.64;96571.72;4805996;29;20240;-75
2022/07/10 14:20:19;;;;;;;4.30;3.43;;;;;;;27.16;39.69;96587.09;4800141;29;20242;-73
2022/07/10 14:22:47;;;;;;;8.50;3.70;;;;;;;27.00;40.42;96575.81;4812193;29;21053;-77
2022/07/10 14:25:14;;;;;;;4.20;3.73;;;;;;;26.83;40.67;96556.56;4804475;29;20298;-74
2022/07/10 14:27:41;;;;;;;4.23;3.77;;;;;;;26.84;40.51;96579.50;4820332;29;20676;-72
2022/07/10 14:30:09;;;;;;;5.17;3.67;;;;;;;26.69;40.57;96560.00;4804133;29;20283;-74
2022/07/10 14:32:36;;;;;;;4.03;3.20;;;;;;;26.54;41.28;96556.53;4816530;29;20210;-73
2022/07/10 14:35:03;;;;;;;5.63;3.40;;;;;;;26.68;41.33;96558.38;4815434;29;20214;-73
2022/07/10 14:37:30;;;;;;;3.60;3.30;;;;;;;26.44;41.48;96562.06;4802300;29;20589;-74
2022/07/10 14:39:57;;;;;;;3.43;3.13;;;;;;;26.21;42.12;96548.03;4808284;29;20224;-73
2022/07/10 14:42:24;;;;;;;4.70;3.30;;;;;;;26.31;42.17;96543.28;4802201;29;20673;-74
2022/07/10 14:44:51;;;;;;;3.70;3.00;;;;;;;26.53;42.07;96544.22;4801786;29;20313;-74
2022/07/10 14:47:18;;;;;;;5.17;3.33;;;;;;;26.26;41.60;96547.47;4802961;29;20668;-73
2022/07/10 14:49:46;;;;;;;3.10;2.90;;;;;;;26.30;41.98;96540.78;4801672;29;20215;-74
2022/07/10 14:52:13;;;;;;;3.60;2.80;;;;;;;26.27;42.18;96546.47;4807804;29;20249;-74
2022/07/10 14:54:40;;;;;;;6.13;4.13;;;;;;;26.05;43.02;96555.25;4812363;29;20206;-74
2022/07/10 14:57:07;;;;;;;5.00;3.33;;;;;;;26.09;42.96;96548.63;4818797;29;20266;-73
2022/07/10 14:59:34;;;;;;;4.07;3.67;;;;;;;25.93;42.55;96530.09;4820215;29;20277;-73
2022/07/10 15:02:01;;;;;;;3.87;3.03;;;;;;;25.98;42.63;96538.38;4807819;29;20219;-73
2022/07/10 15:04:28;;;;;;;3.80;3.00;;;;;;;26.08;42.19;96538.97;4810547;29;20798;-72
2022/07/10 15:06:55;;;;;;;3.10;2.80;;;;;;;25.95;42.11;96509.50;4802875;29;20258;-74
2022/07/10 15:09:22;;;;;;;3.10;2.77;;;;;;;26.15;42.34;96545.25;4802322;29;20218;-75
2022/07/10 15:11:49;;;;;;;3.90;3.03;;;;;;;25.91;42.05;96535.59;4801897;29;20693;-74
2022/07/10 15:14:16;;;;;;;4.30;3.10;;;;;;;25.84;41.78;96543.44;4814117;29;20604;-73
2022/07/10 15:16:43;;;;;;;6.73;3.00;;;;;;;25.82;41.23;96534.81;4819615;29;20619;-77
2022/07/10 15:19:10;;;;;;;4.27;2.77;;;;;;;25.76;41.94;96538.19;4801308;29;20583;-74
2022/07/10 15:21:38;;;;;;;5.93;3.10;;;;;;;25.75;41.47;96554.28;4802166;29;20217;-74
2022/07/10 15:24:05;;;;;;;4.63;2.90;;;;;;;25.73;41.52;96561.59;4801196;29;21125;-73
2022/07/10 15:26:32;;;;;;;7.87;2.63;;;;;;;25.68;41.67;96570.06;4803421;29;20516;-73
2022/07/10 15:28:59;;;;;;;6.23;2.83;;;;;;;25.63;44.22;96564.47;4815288;29;20735;-73
2022/07/10 15:31:26;;;;;;;3.63;2.53;;;;;;;25.61;44.32;96574.44;4819538;29;20331;-75
2022/07/10 15:33:54;;;;;;;3.27;2.73;;;;;;;25.59;44.87;96570.28;4819611;29;20648;-73
2022/07/10 15:36:21;;;;;;;3.40;3.10;;;;;;;25.56;44.37;96563.50;4819187;29;20232;-74
2022/07/10 15:38:49;;;;;;;5.37;3.27;;;;;;;25.85;45.22;96581.41;4819740;29;20285;-74
2022/07/10 15:41:16;;;;;;;6.83;2.97;;;;;;;25.66;44.73;96542.06;4818858;29;20245;-73
2022/07/10 15:43:45;;;;;;;4.63;3.27;;;;;;;25.86;43.78;96577.78;4819416;29;20270;-74
2022/07/10 15:46:13;;;;;;;5.63;3.40;;;;;;;25.79;42.45;96571.50;4818885;29;20240;-74
2022/07/10 15:48:41;;;;;;;4.23;2.57;;;;;;;25.73;41.73;96578.34;4819295;29;20604;-74
2022/07/10 15:51:09;;;;;;;3.90;3.30;;;;;;;25.64;45.03;96571.41;4819120;29;20256;-74
2022/07/10 15:53:36;;;;;;;7.60;5.10;;;;;;;25.33;50.03;96589.09;4818917;29;20300;-74
2022/07/10 15:56:04;;;;;;;6.07;5.13;;;;;;;25.07;53.44;96572.66;4819405;29;20208;-74
2022/07/10 15:58:31;;;;;;;5.80;5.30;;;;;;;25.00;55.39;96593.69;4818824;29;20208;-75
2022/07/10 16:00:58;;;;;;;7.77;6.10;;;;;;;24.70;57.57;96598.88;4819303;29;20288;-74
2022/07/10 16:03:25;;;;;;;6.73;6.13;;;;;;;24.47;59.06;96609.31;4819246;29;20210;-74
2022/07/10 16:05:52;;;;;;;9.30;6.13;;;;;;;24.51;59.53;96623.88;4787346;29;20201;-74
2022/07/10 16:08:21;;;;;;;6.50;5.20;;;;;;;24.53;59.81;96621.03;4819076;29;20233;-74
2022/07/10 16:10:48;;;;;;;8.50;7.23;;;;;;;24.56;61.27;96620.72;4818596;29;20318;-76
2022/07/10 16:13:15;;;;;;;7.00;6.30;;;;;;;24.50;61.74;96618.75;4819270;29;20267;-73
2022/07/10 16:15:42;;;;;;;7.10;6.40;;;;;;;24.61;61.89;96619.22;4818163;29;20327;-74
2022/07/10 16:18:09;;;;;;;6.20;5.60;;;;;;;24.59;61.18;96607.13;4819205;29;20202;-73
2022/07/10 16:20:38;;;;;;;11.53;6.70;;;;;;;24.41;60.11;96602.03;4818663;29;20220;-73
2022/07/10 16:23:05;;;;;;;7.70;5.63;;;;;;;24.56;60.76;96608.31;4819009;29;20206;-73
2022/07/10 16:28:18;;;;;;;7.40;6.00;;;;;;;24.60;59.32;96609.66;4818190;29;20230;-75
2022/07/10 16:30:45;;;;;;;8.57;6.47;;;;;;;24.73;59.01;96609.13;4819084;29;20192;-74
2022/07/10 16:33:12;;;;;;;7.37;6.43;;;;;;;24.76;58.44;96620.25;4818118;29;20211;-74
2022/07/10 16:35:40;;;;;;;8.60;5.93;;;;;;;24.88;57.60;96623.38;4818892;29;20206;-74
2022/07/10 16:38:07;;;;;;;11.10;6.87;;;;;;;24.79;57.16;96605.84;4818288;29;20204;-74
2022/07/10 16:40:34;;;;;;;6.83;6.13;;;;;;;24.72;57.46;96591.56;4818162;29;20763;-76
2022/07/10 16:43:01;;;;;;;7.20;6.07;;;;;;;24.72;57.01;96620.72;4818529;29;20490;-72
2022/07/10 16:45:29;;;;;;;7.27;6.57;;;;;;;24.83;57.17;96625.72;4801087;29;20586;-73
2022/07/10 16:47:58;;;;;;;9.07;6.40;;;;;;;24.75;57.33;96628.38;4818676;29;20216;-73
2022/07/10 16:50:25;;;;;;;6.90;6.13;;;;;;;24.74;57.58;96629.34;4817761;29;20679;-74
2022/07/10 16:52:53;;;;;;;6.37;5.77;;;;;;;24.65;57.07;96627.66;4818440;29;20247;-73
2022/07/10 16:55:20;;;;;;;5.97;5.43;;;;;;;24.68;57.69;96627.34;4818188;29;20218;-76
2022/07/10 16:57:47;;;;;;;6.20;5.60;;;;;;;24.64;57.18;96626.00;4817964;29;20200;-75
2022/07/10 17:00:14;;;;;;;6.77;5.97;;;;;;;24.49;57.40;96619.72;4818025;29;20208;-75
2022/07/10 17:02:42;;;;;;;9.47;6.07;;;;;;;24.40;56.83;96616.25;4817684;29;20261;-75
2022/07/10 17:05:12;;;;;;;10.37;6.00;;;;;;;24.49;56.86;96627.66;4818702;29;20227;-76
2022/07/10 17:07:40;;;;;;;5.63;5.10;;;;;;;24.39;55.77;96611.97;4795522;29;20208;-75
2022/07/10 17:10:09;;;;;;;10.03;5.50;;;;;;;24.45;55.30;96611.28;4821342;29;20196;-75
2022/07/10 17:12:36;;;;;;;5.23;4.73;;;;;;;24.68;53.75;96630.00;4799199;29;20228;-75
2022/07/10 17:15:03;;;;;;;6.67;3.93;;;;;;;24.67;52.94;96634.44;4800951;29;20314;-74
2022/07/10 17:17:32;;;;;;;5.43;4.33;;;;;;;24.71;53.15;96627.03;4798908;29;21066;-75
2022/07/10 17:19:59;;;;;;;6.33;4.50;;;;;;;24.77;50.28;96637.78;4799301;29;20305;-76
2022/07/10 17:22:26;;;;;;;6.37;4.00;;;;;;;24.85;50.03;96636.97;4800112;29;20207;-76
2022/07/10 17:24:53;;;;;;;6.03;4.10;;;;;;;24.90;48.02;96640.75;4799188;29;20206;-76
2022/07/10 17:27:20;;;;;;;5.43;2.63;;;;;;;24.90;45.80;96642.56;4799922;29;20210;-74
2022/07/10 17:29:47;;;;;;;4.03;2.40;;;;;;;24.94;44.51;96657.13;4799378;29;20249;-74
2022/07/10 17:32:15;;;;;;;2.67;2.40;;;;;;;24.88;43.23;96650.69;4799759;29;20266;-74
2022/07/10 17:34:42;;;;;;;3.30;2.50;;;;;;;24.81;43.20;96659.50;4799921;29;20933;-74
2022/07/10 17:37:10;;;;;;;4.80;2.60;;;;;;;24.83;42.45;96663.59;4799417;29;20255;-74
2022/07/10 17:39:37;;;;;;;4.67;2.23;;;;;;;24.68;41.82;96669.72;4799950;29;20587;-73
2022/07/10 17:42:04;;;;;;;6.23;2.17;;;;;;;24.68;42.44;96665.25;4799060;29;20240;-73
2022/07/10 17:44:31;;;;;;;2.33;1.90;;;;;;;24.63;42.14;96658.78;4800017;29;20608;-75
2022/07/10 17:47:01;;;;;;;3.90;2.50;;;;;;;24.48;42.40;96636.63;4799370;29;20649;-77
2022/07/10 17:49:40;;;;;;;2.63;2.13;;;;;;;24.62;41.60;96659.78;4794329;29;20215;-77
2022/07/10 17:52:13;;;;;;;2.80;1.93;;;;;;;24.46;41.81;96634.13;4799812;29;20619;-74
2022/07/10 17:54:41;;;;;;;2.10;1.90;;;;;;;24.53;41.83;96669.53;4798862;29;20209;-76
2022/07/10 17:57:08;;;;;;;2.60;1.80;;;;;;;24.41;42.41;96676.16;4800286;29;20281;-75
2022/07/10 17:59:41;;;;;;;5.00;2.17;;;;;;;24.30;42.37;96679.13;4798862;29;20218;-73
2022/07/10 18:02:09;;;;;;;2.13;1.80;;;;;;;24.13;43.38;96675.59;4799181;29;20985;-75
2022/07/10 18:04:36;;;;;;;4.67;2.00;;;;;;;24.02;43.30;96673.25;4796209;29;20260;-74
2022/07/10 18:07:03;;;;;;;2.20;2.00;;;;;;;24.05;43.88;96683.53;4799098;29;20298;-74
2022/07/10 18:09:30;;;;;;;2.93;2.20;;;;;;;23.94;44.25;96673.25;4799669;29;20579;-75
2022/07/10 18:11:57;;;;;;;2.40;2.20;;;;;;;23.97;44.40;96683.47;4798633;29;21104;-74
2022/07/10 18:14:24;;;;;;;3.30;2.23;;;;;;;23.82;44.59;96687.72;4799464;29;20211;-74
2022/07/10 18:16:51;;;;;;;3.10;2.20;;;;;;;23.80;44.22;96679.13;4797488;29;20756;-74
2022/07/10 18:19:18;;;;;;;3.07;1.87;;;;;;;23.62;44.69;96673.09;4799150;29;20225;-74
2022/07/10 18:21:45;;;;;;;2.60;2.37;;;;;;;23.72;43.85;96702.91;4789842;29;20697;-74
2022/07/10 18:24:16;;;;;;;5.53;1.93;;;;;;;23.73;44.05;96687.88;4799040;29;20647;-74
2022/07/10 18:26:44;;;;;;;2.73;2.20;;;;;;;23.58;44.15;96666.47;4799609;29;20214;-75
2022/07/10 18:29:12;;;;;;;4.83;2.07;;;;;;;23.68;44.36;96706.03;4800960;29;20266;-74
2022/07/10 18:31:39;;;;;;;2.23;2.03;;;;;;;23.71;44.46;96701.25;4802278;29;20690;-75
2022/07/10 18:36:52;;;;;;;2.50;2.00;;;;;;;23.72;44.94;96702.91;4802541;29;20237;-75
2022/07/10 18:39:20;;;;;;;4.53;2.30;;;;;;;23.68;44.50;96690.97;4802614;29;20207;-75
2022/07/10 18:41:49;;;;;;;2.80;2.40;;;;;;;23.70;44.77;96704.06;4801958;29;20727;-74
2022/07/10 18:44:17;;;;;;;2.47;2.00;;;;;;;23.81;44.55;96711.69;4802519;29;20203;-74
2022/07/10 18:46:44;;;;;;;3.70;2.00;;;;;;;23.76;45.17;96711.38;4801250;29;20229;-74
2022/07/10 18:49:11;;;;;;;5.00;2.17;;;;;;;23.67;45.39;96714.94;4802172;29;20691;-73
2022/07/10 18:51:38;;;;;;;2.20;2.00;;;;;;;23.65;45.08;96712.47;4800848;29;20237;-74
2022/07/10 18:54:05;;;;;;;3.33;2.30;;;;;;;23.59;45.58;96715.75;4801990;29;20233;-74
2022/07/10 18:56:33;;;;;;;2.80;2.20;;;;;;;23.65;45.59;96730.16;4802187;29;20202;-75
2022/07/10 18:59:00;;;;;;;3.07;2.07;;;;;;;23.49;45.52;96722.13;4801730;29;20257;-74
2022/07/10 19:01:28;;;;;;;4.53;2.27;;;;;;;23.48;45.65;96737.16;4804041;29;20217;-75
2022/07/10 19:03:56;;;;;;;3.70;2.10;;;;;;;23.43;45.46;96728.88;4801498;29;20219;-75
2022/07/10 19:06:23;;;;;;;3.93;2.13;;;;;;;23.44;45.71;96746.38;4802343;29;20212;-73
2022/07/10 19:08:50;;;;;;;2.13;1.93;;;;;;;23.49;45.47;96741.47;4801630;29;20714;-74
2022/07/10 19:11:17;;;;;;;3.20;2.20;;;;;;;23.40;45.54;96752.97;4802040;29;20214;-75
2022/07/10 19:13:44;;;;;;;2.00;1.80;;;;;;;23.36;45.30;96755.09;4802093;29;20219;-75
2022/07/10 19:16:12;;;;;;;2.37;2.10;;;;;;;23.38;44.67;96763.72;4801420;29;20242;-74
2022/07/10 19:18:41;;;;;;;2.33;2.00;;;;;;;23.37;44.86;96769.13;4802514;29;20202;-73
2022/07/10 19:21:08;;;;;;;3.17;2.47;;;;;;;23.37;44.39;96766.50;4784648;29;20205;-73
2022/07/10 19:23:43;;;;;;;4.70;2.50;;;;;;;23.42;44.17;96759.78;4801903;29;20215;-74
2022/07/10 19:26:13;;;;;;;3.07;2.33;;;;;;;23.55;44.46;96775.22;4801448;29;20337;-74
2022/07/10 19:28:41;;;;;;;2.50;2.30;;;;;;;23.63;44.00;96775.25;4801295;29;20662;-76
2022/07/10 19:31:10;;;;;;;3.60;2.33;;;;;;;23.67;44.58;96770.47;4801783;29;20715;-76
2022/07/10 19:33:39;;;;;;;2.30;2.10;;;;;;;23.66;44.44;96769.66;4800936;29;20241;-76
2022/07/10 19:36:07;;;;;;;4.67;2.57;;;;;;;23.66;44.08;96769.66;4802027;29;20665;-74
2022/07/10 19:38:34;;;;;;;3.40;2.53;;;;;;;23.66;44.58;96763.53;4800581;29;20858;-75
2022/07/10 19:41:03;;;;;;;3.20;2.60;;;;;;;23.55;44.37;96779.66;4801076;29;20286;-74
2022/07/10 19:43:30;;;;;;;3.37;2.33;;;;;;;23.50;44.93;96772.19;4801055;29;20313;-75
2022/07/10 19:45:57;;;;;;;2.37;2.17;;;;;;;23.48;44.72;96784.75;4801459;29;20629;-75
2022/07/10 19:48:25;;;;;;;3.03;2.60;;;;;;;23.41;44.61;96783.72;4801388;29;20206;-75
2022/07/10 19:50:55;;;;;;;3.17;2.40;;;;;;;23.36;44.73;96786.81;4800767;29;20263;-74
2022/07/10 19:53:22;;;;;;;3.10;2.80;;;;;;;23.39;45.06;96794.44;4801352;29;20335;-75
2022/07/10 19:55:50;;;;;;;2.47;2.20;;;;;;;23.22;45.05;96789.16;4800709;29;20300;-74
2022/07/10 19:58:16;;;;;;;3.13;2.80;;;;;;;23.09;45.29;96794.00;4801548;29;20443;-75
2022/07/10 20:00:43;;;;;;;5.10;2.60;;;;;;;23.01;45.92;96800.06;4800963;29;20242;-75
2022/07/10 20:03:10;;;;;;;3.00;2.70;;;;;;;22.93;46.38;96791.25;4800942;29;20207;-76
2022/07/10 20:05:39;;;;;;;2.70;2.50;;;;;;;22.92;46.43;96808.06;4801327;29;20734;-74
2022/07/10 20:08:07;;;;;;;4.77;2.70;;;;;;;22.81;47.05;96811.78;4800622;29;20224;-74
2022/07/10 20:10:34;;;;;;;3.60;2.83;;;;;;;22.66;47.02;96808.00;4801524;29;20248;-75
2022/07/10 20:13:01;;;;;;;3.23;2.70;;;;;;;22.69;47.03;96812.16;4800113;29;20236;-74
2022/07/10 20:15:28;;;;;;;5.13;2.97;;;;;;;22.58;47.34;96800.81;4800852;29;20683;-76
2022/07/10 20:18:15;;;;;;;4.03;2.47;;;;;;;22.45;47.13;96784.47;4801083;29;20694;-76
2022/07/10 20:20:43;;;;;;;2.80;2.60;;;;;;;22.60;47.17;96814.72;4800257;29;20207;-76
2022/07/10 20:23:11;;;;;;;2.87;2.50;;;;;;;22.50;47.44;96805.97;4801080;29;20253;-76
2022/07/10 20:25:38;;;;;;;3.10;2.80;;;;;;;22.40;47.41;96799.91;4800189;29;20251;-76
2022/07/10 20:28:05;;;;;;;2.90;2.70;;;;;;;22.48;47.39;96813.19;4800004;29;20208;-75
2022/07/10 20:30:32;;;;;;;3.10;2.70;;;;;;;22.64;46.90;96816.06;4800482;29;20668;-76
2022/07/10 20:32:58;;;;;;;3.47;2.67;;;;;;;22.72;47.06;96817.09;4800653;29;20232;-75
2022/07/10 20:35:26;;;;;;;3.43;2.50;;;;;;;22.82;46.72;96812.59;4799834;29;20208;-75
2022/07/10 20:37:53;;;;;;;3.97;2.87;;;;;;;22.67;46.68;96816.75;4800165;29;20706;-75
2022/07/10 20:40:19;;;;;;;2.60;2.37;;;;;;;22.64;47.17;96821.34;4800768;29;20664;-75
2022/07/10 20:42:46;;;;;;;3.43;2.70;;;;;;;22.58;47.35;96819.31;4799827;29;20211;-75
2022/07/10 20:45:14;;;;;;;2.60;2.40;;;;;;;22.41;48.38;96813.94;4800586;29;20205;-75
2022/07/10 20:48:04;;;;;;;2.83;2.53;;;;;;;22.38;48.35;96814.25;4799776;29;20709;-75
2022/07/10 20:50:30;;;;;;;2.70;2.50;;;;;;;22.51;48.48;96818.19;4800243;29;20292;-75
2022/07/10 20:52:57;;;;;;;3.20;2.50;;;;;;;22.51;48.06;96818.19;4800232;29;20293;-74
2022/07/10 20:55:24;;;;;;;4.60;2.73;;;;;;;22.46;48.08;96823.06;4799468;29;20698;-74
2022/07/10 20:57:51;;;;;;;2.70;2.50;;;;;;;22.42;48.16;96826.19;4800454;29;20806;-73
2022/07/10 21:00:18;;;;;;;4.00;2.70;;;;;;;22.34;48.08;96826.09;4781990;29;20240;-75
2022/07/10 21:02:46;;;;;;;3.97;2.73;;;;;;;22.40;48.28;96818.38;4800352;29;20216;-75
2022/07/10 21:05:14;;;;;;;4.80;2.70;;;;;;;22.45;47.85;96812.69;4798778;29;20303;-77
2022/07/10 21:07:41;;;;;;;2.83;2.60;;;;;;;22.51;47.55;96826.13;4800057;29;20203;-75
2022/07/10 21:10:09;;;;;;;4.37;2.60;;;;;;;22.53;47.72;96823.31;4800326;29;20201;-76
2022/07/10 21:12:36;;;;;;;3.77;2.40;;;;;;;22.54;47.68;96828.47;4799348;29;20318;-75
2022/07/10 21:15:04;;;;;;;2.50;2.30;;;;;;;22.43;48.12;96822.56;4800155;29;20631;-74
2022/07/10 21:17:31;;;;;;;3.60;2.70;;;;;;;22.36;48.19;96822.31;4799098;29;20290;-75
2022/07/10 21:19:57;;;;;;;2.80;2.60;;;;;;;22.35;48.10;96830.38;4800585;29;20234;-75
2022/07/10 21:22:24;;;;;;;2.60;2.40;;;;;;;22.28;47.49;96824.84;4799502;29;20310;-75
2022/07/10 21:24:51;;;;;;;2.33;2.17;;;;;;;22.10;47.26;96821.34;4799596;29;20272;-75
2022/07/10 21:27:18;;;;;;;5.53;2.87;;;;;;;22.06;47.50;96821.78;4799759;29;20241;-75
2022/07/10 21:29:47;;;;;;;2.80;2.30;;;;;;;22.03;46.95;96825.53;4799395;29;20694;-74
2022/07/10 21:32:14;;;;;;;3.63;2.10;;;;;;;22.06;47.00;96827.88;4799916;29;20255;-75
2022/07/10 21:34:41;;;;;;;3.33;2.40;;;;;;;22.00;46.86;96828.47;4799397;29;20715;-74
2022/07/10 21:37:08;;;;;;;2.40;2.00;;;;;;;21.91;47.47;96842.50;4800237;29;20211;-74
2022/07/10 21:39:34;;;;;;;2.77;2.30;;;;;;;21.91;47.66;96834.59;4799740;29;20209;-75
2022/07/10 21:42:01;;;;;;;2.57;2.33;;;;;;;21.90;47.93;96838.22;4799897;29;20277;-74
2022/07/10 21:44:28;;;;;;;2.70;2.10;;;;;;;21.89;47.94;96823.38;4800405;29;20711;-75
2022/07/10 21:46:55;;;;;;;3.83;2.50;;;;;;;21.91;47.71;96831.97;4800935;29;20223;-75
2022/07/10 21:49:22;;;;;;;2.50;2.30;;;;;;;21.82;47.79;96833.66;4801046;29;20201;-75
2022/07/10 21:51:49;;;;;;;2.20;2.00;;;;;;;21.86;48.15;96828.94;4799813;29;20701;-75
2022/07/10 21:54:16;;;;;;;2.80;2.47;;;;;;;21.78;48.33;96816.44;4800480;29;20717;-74
2022/07/10 21:56:43;;;;;;;1.90;1.80;;;;;;;21.92;48.01;96827.53;4799856;29;20598;-75
2022/07/10 21:59:10;;;;;;;3.30;2.33;;;;;;;21.88;48.22;96835.72;4800156;29;20290;-75
2022/07/10 22:01:37;;;;;;;4.70;2.30;;;;;;;21.73;48.23;96825.75;4799765;29;20620;-74
2022/07/10 22:04:04;;;;;;;2.60;2.20;;;;;;;21.84;48.30;96831.72;4801111;29;20212;-75
2022/07/10 22:06:31;;;;;;;3.13;2.20;;;;;;;21.83;48.37;96829.22;4803411;29;20307;-75
2022/07/10 22:08:59;;;;;;;2.57;2.37;;;;;;;21.71;48.38;96828.56;4802483;29;20291;-74
2022/07/10 22:11:26;;;;;;;2.43;2.23;;;;;;;21.68;48.69;96826.19;4803426;29;20292;-74
2022/07/10 22:13:53;;;;;;;2.43;2.23;;;;;;;21.71;48.43;96827.72;4802502;29;20254;-73
2022/07/10 22:16:20;;;;;;;2.30;2.10;;;;;;;21.66;48.81;96822.03;4808161;29;20262;-72
2022/07/10 22:18:47;;;;;;;2.93;2.40;;;;;;;21.59;49.08;96818.31;4820980;29;20281;-73
2022/07/10 22:21:14;;;;;;;3.07;2.37;;;;;;;21.64;48.93;96824.81;4820914;29;20217;-72
2022/07/10 22:23:42;;;;;;;3.73;2.00;;;;;;;21.66;48.91;96819.38;4821145;29;20206;-72
2022/07/10 22:26:10;;;;;;;3.23;2.67;;;;;;;21.73;48.86;96820.50;4820325;29;20237;-72
2022/07/10 22:28:36;;;;;;;3.10;2.20;;;;;;;21.66;48.92;96822.88;4820970;29;20221;-73
2022/07/10 22:31:22;;;;;;;3.73;2.40;;;;;;;21.80;48.65;96832.94;4803813;29;20201;-74
2022/07/10 22:33:51;;;;;;;2.43;2.23;;;;;;;21.72;49.02;96819.66;4820470;29;20236;-74
2022/07/10 22:36:26;;;;;;;2.10;2.00;;;;;;;21.71;49.08;96820.63;4820991;29;20236;-74
2022/07/10 22:38:53;;;;;;;2.50;2.30;;;;;;;21.73;49.06;96823.13;4820031;29;20214;-76
2022/07/10 22:41:21;;;;;;;3.60;2.10;;;;;;;21.71;49.14;96819.81;4820952;29;20211;-75
2022/07/10 22:43:49;;;;;;;2.50;2.30;;;;;;;21.60;49.24;96822.59;4803968;29;20202;-73
2022/07/10 22:46:16;;;;;;;4.40;2.30;;;;;;;21.61;49.31;96829.56;4820474;29;20241;-74
2022/07/10 22:48:43;;;;;;;2.30;2.10;;;;;;;21.62;49.31;96825.91;4820134;29;20198;-75
2022/07/10 22:51:10;;;;;;;2.67;2.00;;;;;;;21.64;49.09;96829.25;4819916;29;20208;-75
2022/07/10 22:53:37;;;;;;;2.20;2.00;;;;;;;21.54;49.46;96828.44;4820413;29;20236;-75
2022/07/10 22:56:04;;;;;;;2.30;2.10;;;;;;;21.63;48.96;96832.88;4819637;29;20210;-75
2022/07/10 22:58:31;;;;;;;4.03;1.90;;;;;;;21.68;49.02;96830.63;4820524;29;20693;-75
2022/07/10 23:00:59;;;;;;;5.87;2.17;;;;;;;21.54;48.76;96823.16;4819480;29;20301;-75
2022/07/10 23:03:27;;;;;;;5.73;2.50;;;;;;;21.47;48.82;96811.56;4820133;29;20266;-75
2022/07/10 23:05:54;;;;;;;2.70;2.50;;;;;;;21.57;48.94;96822.91;4803772;29;20198;-74
2022/07/10 23:08:21;;;;;;;4.43;2.17;;;;;;;21.43;48.59;96826.00;4819845;29;20249;-74
2022/07/10 23:10:48;;;;;;;2.17;1.90;;;;;;;21.51;48.68;96826.13;4820093;29;20192;-74
2022/07/10 23:13:16;;;;;;;2.43;2.20;;;;;;;21.42;48.70;96822.53;4819438;29;20277;-74
2022/07/10 23:15:43;;;;;;;2.60;2.40;;;;;;;21.41;48.52;96812.13;4819597;29;20745;-74
2022/07/10 23:18:10;;;;;;;3.40;2.20;;;;;;;21.50;48.24;96830.53;4819511;29;20285;-74
2022/07/10 23:20:37;;;;;;;3.00;2.10;;;;;;;21.52;47.72;96828.59;4819994;29;20248;-74
2022/07/10 23:23:04;;;;;;;2.40;2.20;;;;;;;21.55;47.35;96824.84;4819609;29;20246;-74
2022/07/10 23:25:31;;;;;;;2.20;2.00;;;;;;;21.58;47.32;96825.38;4819471;29;20241;-73
2022/07/10 23:27:58;;;;;;;3.07;2.03;;;;;;;21.63;47.10;96823.16;4819763;29;20633;-74
2022/07/10 23:30:25;;;;;;;3.30;2.50;;;;;;;21.62;46.80;96815.38;4819279;29;20202;-73
2022/07/10 23:32:52;;;;;;;3.80;2.27;;;;;;;21.70;46.62;96824.25;4820059;29;20241;-74
2022/07/10 23:35:19;;;;;;;3.23;2.10;;;;;;;21.69;46.84;96821.75;4819165;29;20294;-74
2022/07/10 23:37:53;;;;;;;2.80;2.00;;;;;;;21.73;46.98;96831.03;4819558;29;20205;-74
2022/07/10 23:40:20;;;;;;;4.03;2.67;;;;;;;21.71;46.76;96825.91;4819419;29;20696;-74
2022/07/10 23:42:47;;;;;;;2.60;2.40;;;;;;;21.77;47.30;96830.59;4819244;29;20282;-74
2022/07/10 23:45:14;;;;;;;3.13;2.23;;;;;;;21.81;47.03;96826.75;4819589;29;20203;-73
2022/07/10 23:47:41;;;;;;;3.87;2.27;;;;;;;21.50;46.71;96816.53;4819172;29;20304;-74
2022/07/10 23:50:08;;;;;;;2.57;2.37;;;;;;;21.43;46.75;96811.00;4819653;29;20209;-74
2022/07/10 23:52:39;;;;;;;4.07;2.20;;;;;;;21.42;46.75;96813.78;4818549;29;20198;-74
2022/07/10 23:55:08;;;;;;;3.23;2.00;;;;;;;21.42;46.81;96819.03;4819440;29;20678;-74
2022/07/10 23:57:35;;;;;;;3.63;1.90;;;;;;;21.33;46.78;96809.38;4819027;29;20552;-75
